createdAt,value
2022-08-25T00:02:55.809Z,23.83
2022-08-25T00:08:06.857Z,23.71
2022-08-25T00:13:18.875Z,23.66
2022-08-25T00:18:31.294Z,23.6
2022-08-25T00:23:43.625Z,23.54
2022-08-25T00:28:57.480Z,23.51
2022-08-25T00:34:08.373Z,23.49
2022-08-25T00:39:20.681Z,23.47
2022-08-25T00:44:33.120Z,23.44
2022-08-25T00:49:45.347Z,23.39
2022-08-25T00:54:57.965Z,23.32
2022-08-25T01:00:10.347Z,23.28
2022-08-25T01:05:22.618Z,23.26
2022-08-25T01:10:34.940Z,23.2
2022-08-25T01:15:47.389Z,23.19
2022-08-25T01:20:59.689Z,23.18
2022-08-25T01:26:11.961Z,23.2
2022-08-25T01:31:24.592Z,23.21
2022-08-25T01:36:36.866Z,23.21
2022-08-25T01:41:50.515Z,23.19
2022-08-25T01:47:01.720Z,23.21
2022-08-25T01:52:14.018Z,23.17
2022-08-25T01:57:26.201Z,23.14
2022-08-25T02:02:38.497Z,23.14
2022-08-25T02:07:50.740Z,23.08
2022-08-25T02:13:03.093Z,23.04
2022-08-25T02:18:15.427Z,22.96
2022-08-25T02:23:27.612Z,22.9
2022-08-25T02:28:40.064Z,22.86
2022-08-25T02:33:52.301Z,22.83
2022-08-25T02:39:04.542Z,22.76
2022-08-25T02:44:16.843Z,22.67
2022-08-25T02:49:29.149Z,22.59
2022-08-25T02:54:41.406Z,22.54
2022-08-25T02:59:53.916Z,22.51
2022-08-25T03:05:06.299Z,22.51
2022-08-25T03:10:18.789Z,22.49
2022-08-25T03:15:30.849Z,22.47
2022-08-25T03:20:43.433Z,22.44
2022-08-25T03:25:55.945Z,22.44
2022-08-25T03:31:08.391Z,22.38
2022-08-25T03:36:20.603Z,22.3
2022-08-25T03:41:32.911Z,22.27
2022-08-25T03:46:45.240Z,22.26
2022-08-25T03:51:57.560Z,22.24
2022-08-25T03:57:10.108Z,22.22
2022-08-25T04:02:22.472Z,22.19
2022-08-25T04:07:34.846Z,22.19
2022-08-25T04:12:47.156Z,22.2
2022-08-25T04:17:59.401Z,22.17
2022-08-25T04:23:11.736Z,22.15
2022-08-25T04:28:24.237Z,22.11
2022-08-25T04:33:36.547Z,22.08
2022-08-25T04:38:49.061Z,22.06
2022-08-25T04:44:01.569Z,22.06
2022-08-25T04:49:14.023Z,22.08
2022-08-25T04:54:26.415Z,22.08
2022-08-25T04:59:39.703Z,22.1
2022-08-25T05:04:51.976Z,22.06
2022-08-25T05:10:06.788Z,22.02
2022-08-25T05:15:19.117Z,22.04
2022-08-25T05:20:31.918Z,22.06
2022-08-25T05:25:44.236Z,22.11
2022-08-25T05:30:56.739Z,22.12
2022-08-25T05:36:09.148Z,22.1
2022-08-25T05:41:21.580Z,22.04
2022-08-25T05:46:33.901Z,22.06
2022-08-25T05:51:46.238Z,22.15
2022-08-25T05:56:58.740Z,22.21
2022-08-25T06:02:11.236Z,22.29
2022-08-25T06:07:23.814Z,22.46
2022-08-25T06:12:36.047Z,22.63
2022-08-25T06:17:48.564Z,22.85
2022-08-25T06:23:01.058Z,23.12
2022-08-25T06:28:13.408Z,23.11
2022-08-25T06:33:25.629Z,22.86
2022-08-25T06:38:38.173Z,22.82
2022-08-25T06:43:54.191Z,22.81
2022-08-25T06:49:03.079Z,22.78
2022-08-25T06:54:15.661Z,22.78
2022-08-25T06:59:32.069Z,22.81
2022-08-25T07:04:40.399Z,22.87
2022-08-25T07:09:52.850Z,22.96
2022-08-25T07:15:19.155Z,23.04
2022-08-25T07:20:19.126Z,23.17
2022-08-25T07:25:30.321Z,23.27
2022-08-25T07:30:42.621Z,23.32
2022-08-25T07:35:55.135Z,23.52
2022-08-25T07:41:07.357Z,23.75
2022-08-25T07:46:19.735Z,23.84
2022-08-25T07:51:31.984Z,23.95
2022-08-25T07:56:44.536Z,24.07
2022-08-25T08:01:57.087Z,24.09
2022-08-25T08:07:12.036Z,24.14
2022-08-25T08:12:22.448Z,24.17
2022-08-25T08:17:34.768Z,24.18
2022-08-25T08:22:49.853Z,24.27
2022-08-25T08:28:02.364Z,24.37
2022-08-25T08:33:14.612Z,24.47
2022-08-25T08:38:27.391Z,24.62
2022-08-25T08:43:39.556Z,24.76
2022-08-25T08:48:51.967Z,24.91
2022-08-25T08:59:16.731Z,25.01
2022-08-25T09:04:29.265Z,25.08
2022-08-25T09:09:41.772Z,25.15
2022-08-25T09:14:54.407Z,25.26
2022-08-25T09:20:18.505Z,25.41
2022-08-25T09:25:25.669Z,25.47
2022-08-25T09:30:31.393Z,25.53
2022-08-25T09:35:43.705Z,25.66
2022-08-25T09:40:56.363Z,25.89
2022-08-25T09:46:08.625Z,26.04
2022-08-25T09:51:20.987Z,26.15
2022-08-25T09:56:33.231Z,26.32
2022-08-25T10:01:45.656Z,26.54
2022-08-25T10:06:57.960Z,26.86
2022-08-25T10:12:10.319Z,27
2022-08-25T10:17:22.610Z,27.21
2022-08-25T10:27:47.887Z,27.72
2022-08-25T10:33:00.004Z,27.89
2022-08-25T10:38:12.275Z,28.09
2022-08-25T10:43:24.658Z,28.12
2022-08-25T10:48:37.240Z,28.18
2022-08-25T10:53:49.575Z,28.35
2022-08-25T10:59:01.946Z,28.56
2022-08-25T11:04:14.474Z,28.78
2022-08-25T11:09:26.952Z,28.85
2022-08-25T11:14:39.583Z,28.93
2022-08-25T11:19:52.071Z,29.21
2022-08-25T11:25:04.337Z,29.49
2022-08-25T11:30:17.061Z,29.68
2022-08-25T11:35:29.302Z,29.85
2022-08-25T11:40:41.744Z,30.2
2022-08-25T11:45:54.705Z,30.5
2022-08-25T11:51:06.236Z,30.51
2022-08-25T11:56:18.600Z,30.51
2022-08-25T12:01:30.861Z,30.5
2022-08-25T12:06:45.918Z,30.48
2022-08-25T12:11:58.188Z,30.38
2022-08-25T12:17:12.149Z,30.4
2022-08-25T12:22:22.954Z,30.53
2022-08-25T12:27:35.196Z,30.65
2022-08-25T12:32:47.609Z,30.97
2022-08-25T12:38:00.529Z,31.67
2022-08-25T12:43:12.997Z,32.13
2022-08-25T12:48:25.305Z,31.97
2022-08-25T12:59:00.496Z,31.86
2022-08-25T13:04:05.298Z,32.07
2022-08-25T13:09:17.873Z,32.06
2022-08-25T13:14:30.033Z,31.8
2022-08-25T13:19:43.026Z,32.11
2022-08-25T13:24:55.465Z,32.54
2022-08-25T13:30:08.255Z,32.84
2022-08-25T13:35:20.578Z,32.63
2022-08-25T13:40:32.718Z,32.36
2022-08-25T13:45:45.076Z,32.03
2022-08-25T13:50:57.351Z,32.07
2022-08-25T13:56:09.895Z,32.36
2022-08-25T14:01:23.436Z,32.5
2022-08-25T14:06:34.366Z,32.39
2022-08-25T14:11:46.562Z,32.33
2022-08-25T14:16:59.075Z,32.62
2022-08-25T14:22:11.416Z,33.2
2022-08-25T14:27:23.937Z,33.75
2022-08-25T14:32:36.356Z,34.29
2022-08-25T14:37:48.578Z,34.33
2022-08-25T14:43:00.888Z,33.99
2022-08-25T14:48:12.818Z,33.27
2022-08-25T14:53:25.255Z,33.44
2022-08-25T14:58:48.624Z,33.82
2022-08-25T15:03:50.054Z,34.36
2022-08-25T15:09:02.497Z,34.86
2022-08-25T15:14:14.897Z,35.27
2022-08-25T15:19:27.559Z,35.26
2022-08-25T15:24:39.615Z,35.29
2022-08-25T15:29:52.054Z,35.41
2022-08-25T15:35:04.339Z,35.53
2022-08-25T15:40:16.829Z,35.67
2022-08-25T15:45:29.234Z,35.65
2022-08-25T15:50:41.632Z,35.82
2022-08-25T15:55:54.215Z,36.06
2022-08-25T16:01:06.602Z,36.06
2022-08-25T16:06:19.215Z,35.56
2022-08-25T16:11:31.552Z,35.43
2022-08-25T16:16:44.066Z,35.81
2022-08-25T16:21:56.096Z,36.02
2022-08-25T16:27:08.641Z,36.14
2022-08-25T16:32:20.681Z,36.31
2022-08-25T16:37:33.459Z,36.05
2022-08-25T16:42:45.740Z,36.22
2022-08-25T16:47:58.096Z,36.34
2022-08-25T16:53:10.327Z,36.23
2022-08-25T16:58:22.633Z,36.13
2022-08-25T17:03:34.660Z,35.73
2022-08-25T17:08:48.341Z,35.55
2022-08-25T17:14:00.641Z,35.4
2022-08-25T17:19:12.859Z,35.09
2022-08-25T17:24:29.127Z,34.63
2022-08-25T17:29:37.219Z,34
2022-08-25T17:34:49.463Z,33.61
2022-08-25T17:40:02.891Z,33.15
2022-08-25T17:45:13.660Z,32.41
2022-08-25T17:50:26.135Z,31.96
2022-08-25T17:55:38.428Z,31.57
2022-08-25T18:00:50.954Z,31.21
2022-08-25T18:06:03.526Z,30.85
2022-08-25T18:11:15.600Z,30.56
2022-08-25T18:16:27.684Z,30.22
2022-08-25T18:21:40.562Z,29.98
2022-08-25T18:26:52.963Z,29.86
2022-08-25T18:32:05.283Z,29.76
2022-08-25T18:37:17.623Z,29.68
2022-08-25T18:42:30.064Z,29.62
2022-08-25T18:47:42.509Z,29.53
2022-08-25T18:52:55.198Z,29.47
2022-08-25T18:58:07.240Z,29.38
2022-08-25T19:03:19.246Z,29.29
2022-08-25T19:08:31.816Z,29.21
2022-08-25T19:13:44.204Z,29.12
2022-08-25T19:18:56.507Z,29.04
2022-08-25T19:24:09.060Z,28.94
2022-08-25T19:29:21.582Z,28.9
2022-08-25T19:34:33.900Z,28.89
2022-08-25T19:39:53.073Z,28.83
2022-08-25T19:44:58.217Z,28.72
2022-08-25T19:50:10.534Z,28.62
2022-08-25T19:55:22.911Z,28.51
2022-08-25T20:00:35.423Z,28.45
2022-08-25T20:05:47.718Z,28.41
2022-08-25T20:10:59.939Z,28.36
2022-08-25T20:16:12.197Z,28.3
2022-08-25T20:21:24.802Z,28.26
2022-08-25T20:26:37.021Z,28.21
2022-08-25T20:31:49.260Z,28.12
2022-08-25T20:37:01.751Z,28.09
2022-08-25T20:42:14.226Z,28.06
2022-08-25T20:47:26.547Z,28.03
2022-08-25T20:52:39.148Z,27.95
2022-08-25T20:57:51.479Z,27.93
2022-08-25T21:03:03.801Z,27.87
2022-08-25T21:08:16.136Z,27.81
2022-08-25T21:13:28.578Z,27.74
2022-08-25T21:18:40.940Z,27.67
2022-08-25T21:23:53.385Z,27.53
2022-08-25T21:29:05.761Z,27.41
2022-08-25T21:34:18.516Z,27.29
2022-08-25T21:39:31.911Z,27.2
2022-08-25T21:44:43.025Z,27.14
2022-08-25T21:49:55.534Z,27.07
2022-08-25T21:55:07.797Z,27.03
2022-08-25T22:00:21.211Z,26.98
2022-08-25T22:05:32.500Z,26.97
2022-08-25T22:10:45.018Z,26.91
2022-08-25T22:15:57.398Z,26.82
2022-08-25T22:21:09.780Z,26.75
2022-08-25T22:26:22.287Z,26.73
2022-08-25T22:31:34.753Z,26.7
2022-08-25T22:36:47.153Z,26.67
2022-08-25T22:41:59.384Z,26.63
2022-08-25T22:47:14.588Z,26.63
2022-08-25T22:52:33.481Z,26.63
2022-08-25T22:57:39.629Z,26.61
2022-08-25T23:02:52.031Z,26.61
2022-08-25T23:08:04.273Z,26.59
2022-08-25T23:13:19.405Z,26.55
2022-08-25T23:18:28.801Z,26.52
2022-08-25T23:23:41.226Z,26.47
2022-08-25T23:28:53.676Z,26.41
2022-08-25T23:34:05.946Z,26.41
2022-08-25T23:39:18.203Z,26.37
2022-08-25T23:44:30.639Z,26.32
2022-08-25T23:49:43.066Z,26.28
2022-08-25T23:54:55.370Z,26.22
